Time;durP1;ratioP1;P1;durP2;ratioP2;P2;SDS_P1;SDS_P2;PMS_P1;PMS_P2;Temp;Humidity;BMP_temperature;BMP_pressure;BME280_temperature;BME280_humidity;BME280_pressure;Samples;Min_cycle;Max_cycle;Signal;HPM_P1;HPM_P2
2022/08/12 06:03:20;;;;;;;4.30;2.83;;;20.60;99.90;;;;;;5012239;28;20235;-57
2022/08/12 06:05:50;;;;;;;6.23;2.83;;;20.90;99.90;;;;;;4999228;28;20407;-58
2022/08/12 06:08:25;;;;;;;5.10;3.00;;;21.00;99.90;;;;;;4992718;28;20227;-58
2022/08/12 06:10:55;;;;;;;7.87;3.40;;;21.10;99.90;;;;;;4991743;28;20229;-58
2022/08/12 06:13:24;;;;;;;3.10;2.77;;;21.20;99.90;;;;;;4993275;28;20291;-58
2022/08/12 06:16:14;;;;;;;5.90;2.67;;;21.30;99.90;;;;;;4993595;28;20233;-58
2022/08/12 06:18:43;;;;;;;4.87;3.10;;;21.50;99.90;;;;;;4997703;28;20240;-58
2022/08/12 06:21:14;;;;;;;6.13;3.00;;;21.60;99.90;;;;;;4991108;28;20583;-58
2022/08/12 06:23:44;;;;;;;5.40;2.90;;;21.90;99.90;;;;;;4998785;28;20233;-58
2022/08/12 06:26:15;;;;;;;3.73;2.60;;;22.00;99.90;;;;;;4999724;28;20320;-57
2022/08/12 06:28:44;;;;;;;3.53;2.90;;;22.30;99.90;;;;;;4990696;28;20253;-54
2022/08/12 06:31:15;;;;;;;4.67;2.87;;;22.50;99.90;;;;;;4989297;28;20249;-56
2022/08/12 06:33:54;;;;;;;4.33;2.80;;;22.60;99.90;;;;;;4997937;28;20308;-56
2022/08/12 06:36:43;;;;;;;4.63;2.87;;;22.70;99.90;;;;;;4990834;28;20225;-56
2022/08/12 06:39:12;;;;;;;5.30;3.03;;;22.90;99.90;;;;;;4979786;28;20233;-57
2022/08/12 06:44:49;;;;;;;4.40;2.80;;;23.30;99.90;;;;;;4982208;28;20582;-56
2022/08/12 06:47:18;;;;;;;3.57;3.00;;;23.40;99.90;;;;;;4995654;28;20284;-56
2022/08/12 06:49:48;;;;;;;6.03;3.07;;;23.50;99.90;;;;;;4998281;28;20239;-56
2022/08/12 06:52:20;;;;;;;4.53;2.60;;;23.60;99.90;;;;;;4987206;28;20346;-56
2022/08/12 06:54:48;;;;;;;5.80;2.73;;;24.00;99.90;;;;;;5009137;28;20248;-56
2022/08/12 06:57:16;;;;;;;3.20;2.30;;;24.10;99.90;;;;;;4996270;28;20623;-57
2022/08/12 07:00:07;;;;;;;5.00;2.87;;;24.50;99.90;;;;;;4994555;28;21627;-54
2022/08/12 07:02:35;;;;;;;4.10;2.50;;;24.70;99.90;;;;;;4995997;28;20309;-56
2022/08/12 07:05:04;;;;;;;5.90;2.67;;;24.80;99.90;;;;;;5024676;28;20248;-55
2022/08/12 07:07:37;;;;;;;5.67;2.40;;;24.90;99.90;;;;;;5035693;28;20217;-56
2022/08/12 07:10:06;;;;;;;3.87;2.40;;;25.00;99.90;;;;;;5031875;28;20322;-57
2022/08/12 07:12:35;;;;;;;3.37;2.43;;;25.00;99.90;;;;;;5032556;28;20235;-57
2022/08/12 07:15:04;;;;;;;7.53;2.83;;;25.20;99.90;;;;;;5036251;28;20237;-58
2022/08/12 07:17:35;;;;;;;4.23;2.30;;;25.20;99.90;;;;;;5031965;28;20578;-57
2022/08/12 07:20:08;;;;;;;2.57;2.17;;;25.20;99.90;;;;;;5032851;28;20241;-58
2022/08/12 07:22:40;;;;;;;5.10;2.23;;;25.40;99.90;;;;;;5028351;28;20223;-57
2022/08/12 07:27:56;;;;;;;3.67;2.50;;;25.90;99.90;;;;;;5033432;28;20237;-58
2022/08/12 07:30:24;;;;;;;4.83;2.47;;;26.20;99.90;;;;;;5033987;28;20214;-56
2022/08/12 07:32:53;;;;;;;5.53;2.50;;;26.40;99.90;;;;;;5024511;28;20245;-57
2022/08/12 07:35:29;;;;;;;6.10;2.60;;;26.60;99.90;;;;;;5032993;28;20283;-58
2022/08/12 07:37:59;;;;;;;5.03;2.30;;;26.80;99.90;;;;;;5035398;28;20233;-58
2022/08/12 07:40:29;;;;;;;3.60;2.30;;;27.10;99.90;;;;;;5035190;28;20583;-57
2022/08/12 07:42:57;;;;;;;6.30;2.50;;;27.30;99.90;;;;;;5035215;28;20235;-57
2022/08/12 07:45:25;;;;;;;5.60;2.40;;;27.40;99.90;;;;;;5035557;28;20238;-57
2022/08/12 07:47:54;;;;;;;5.53;2.13;;;27.50;99.90;;;;;;5035429;28;20231;-57
2022/08/12 07:50:22;;;;;;;4.10;2.13;;;27.70;99.90;;;;;;5033344;28;20231;-57
2022/08/12 07:52:51;;;;;;;3.00;2.37;;;27.90;99.90;;;;;;5019319;28;20228;-57
2022/08/12 07:55:20;;;;;;;2.63;2.33;;;28.10;99.90;;;;;;5035265;28;20238;-57
2022/08/12 07:57:51;;;;;;;6.07;2.53;;;28.10;99.90;;;;;;5034143;28;20224;-57
2022/08/12 08:00:19;;;;;;;5.63;2.57;;;27.90;99.90;;;;;;5031933;28;20251;-57
2022/08/12 08:02:49;;;;;;;4.00;2.50;;;28.10;99.90;;;;;;5034141;28;20224;-57
2022/08/12 08:05:18;;;;;;;3.63;2.50;;;28.20;99.90;;;;;;5028280;28;20338;-58
2022/08/12 08:07:47;;;;;;;12.53;3.03;;;28.40;99.90;;;;;;5021634;28;20235;-58
2022/08/12 08:10:20;;;;;;;3.87;2.20;;;28.70;99.90;;;;;;5031799;28;20235;-57
2022/08/12 08:12:53;;;;;;;4.47;2.43;;;28.70;99.90;;;;;;5034239;28;20307;-57
2022/08/12 08:15:22;;;;;;;3.57;2.43;;;28.80;99.90;;;;;;5034906;28;20249;-57
2022/08/12 08:18:12;;;;;;;3.80;2.17;;;29.00;99.90;;;;;;5034708;28;20231;-58
2022/08/12 08:20:56;;;;;;;2.90;2.20;;;29.20;99.90;;;;;;5025481;28;20311;-58
2022/08/12 08:24:13;;;;;;;3.93;2.50;;;29.30;99.90;;;;;;5026439;28;20227;-58
2022/08/12 08:26:25;;;;;;;3.57;2.27;;;29.20;99.90;;;;;;5017652;28;20599;-57
2022/08/12 08:28:54;;;;;;;5.33;2.43;;;29.30;99.90;;;;;;5034441;28;20230;-57
2022/08/12 08:31:22;;;;;;;4.23;2.23;;;29.50;99.90;;;;;;5029061;28;20659;-58
2022/08/12 08:33:50;;;;;;;4.83;2.60;;;29.40;99.90;;;;;;5022413;28;20237;-58
2022/08/12 08:36:39;;;;;;;3.77;2.20;;;29.80;99.90;;;;;;5040503;28;20601;-57
2022/08/12 08:39:11;;;;;;;4.03;2.40;;;29.90;99.90;;;;;;5024851;28;20243;-57
2022/08/12 08:44:48;;;;;;;3.00;2.30;;;30.20;99.90;;;;;;5023043;28;20225;-56
2022/08/12 08:47:24;;;;;;;4.80;2.13;;;30.10;99.90;;;;;;5039915;28;20621;-57
2022/08/12 08:49:56;;;;;;;4.33;2.17;;;30.20;99.90;;;;;;5035139;28;20279;-57
2022/08/12 08:52:24;;;;;;;5.03;2.00;;;30.30;99.90;;;;;;5030362;28;20537;-57
2022/08/12 08:55:08;;;;;;;2.47;2.20;;;30.60;99.90;;;;;;5023191;28;20300;-55
2022/08/12 08:57:39;;;;;;;4.77;2.50;;;30.40;99.90;;;;;;5033286;28;20640;-55
2022/08/12 09:00:15;;;;;;;5.50;2.40;;;30.70;99.90;;;;;;5026763;28;20225;-55
2022/08/12 09:02:44;;;;;;;2.80;2.07;;;30.70;99.10;;;;;;5027806;28;20248;-57
2022/08/12 09:05:26;;;;;;;3.53;2.20;;;30.70;99.90;;;;;;5028048;28;20635;-55
2022/08/12 09:07:58;;;;;;;5.00;2.50;;;31.20;99.90;;;;;;5032799;28;20221;-57
2022/08/12 09:10:46;;;;;;;3.60;2.23;;;31.20;99.70;;;;;;5029502;28;20228;-57
2022/08/12 09:13:31;;;;;;;6.43;2.40;;;31.50;99.20;;;;;;5020437;28;20585;-57
2022/08/12 09:16:19;;;;;;;5.17;2.33;;;31.10;97.60;;;;;;5021494;28;20220;-58
2022/08/12 09:18:48;;;;;;;4.60;2.07;;;30.90;97.30;;;;;;5026793;28;20220;-57
2022/08/12 09:21:20;;;;;;;6.47;2.10;;;31.00;98.10;;;;;;5021767;28;20693;-57
2022/08/12 09:23:50;;;;;;;5.67;2.33;;;31.20;97.30;;;;;;5031131;28;20220;-57
2022/08/12 09:26:28;;;;;;;3.03;2.10;;;31.30;96.90;;;;;;5033604;28;20723;-57
2022/08/12 09:28:58;;;;;;;3.43;2.13;;;31.60;97.00;;;;;;5029018;28;20227;-57
2022/08/12 09:31:29;;;;;;;5.80;2.27;;;31.30;96.30;;;;;;5030440;28;20283;-57
2022/08/12 09:34:17;;;;;;;4.07;2.50;;;31.30;95.20;;;;;;5027562;28;20228;-58
2022/08/12 09:37:00;;;;;;;2.50;2.03;;;31.30;96.00;;;;;;5031816;28;20240;-57
2022/08/12 09:39:45;;;;;;;5.43;1.90;;;31.50;95.80;;;;;;5027400;28;20284;-58
2022/08/12 09:45:45;;;;;;;5.23;2.17;;;31.90;92.40;;;;;;5037074;28;20234;-57
2022/08/12 09:48:33;;;;;;;4.30;2.00;;;32.20;95.20;;;;;;5027075;28;20237;-57
2022/08/12 09:51:07;;;;;;;4.63;2.23;;;32.20;92.80;;;;;;5023591;28;20720;-57
2022/08/12 09:53:49;;;;;;;3.50;2.30;;;32.20;92.80;;;;;;5030296;28;20282;-57
2022/08/12 09:56:37;;;;;;;6.53;2.23;;;32.30;93.30;;;;;;5032003;28;20595;-58
2022/08/12 09:59:25;;;;;;;5.20;2.10;;;32.10;92.30;;;;;;5029924;28;20226;-58
2022/08/12 10:02:15;;;;;;;4.47;2.00;;;32.20;92.40;;;;;;5021558;28;20232;-58
2022/08/12 10:05:03;;;;;;;3.63;2.07;;;32.20;91.20;;;;;;5022165;28;20244;-58
2022/08/12 10:07:31;;;;;;;5.73;2.10;;;31.90;91.90;;;;;;5028167;28;20319;-58
2022/08/12 10:10:10;;;;;;;5.37;2.30;;;32.20;91.60;;;;;;5031438;28;20640;-58
2022/08/12 10:15:43;;;;;;;3.57;2.10;;;32.70;90.90;;;;;;5020710;28;20289;-57
2022/08/12 10:18:33;;;;;;;5.03;2.07;;;32.90;90.90;;;;;;5034014;28;20678;-58
2022/08/12 10:21:06;;;;;;;3.50;2.17;;;33.20;90.50;;;;;;5031332;28;20232;-57
2022/08/12 10:23:35;;;;;;;3.63;2.00;;;33.50;89.30;;;;;;5022383;28;20245;-58
2022/08/12 10:32:19;;;;;;;3.27;1.97;;;33.40;86.10;;;;;;5020563;28;20458;-58
2022/08/12 10:35:09;;;;;;;3.23;1.73;;;33.40;85.30;;;;;;5030386;28;20230;-58
2022/08/12 10:37:40;;;;;;;4.77;1.57;;;33.70;83.80;;;;;;5032181;28;20228;-57
2022/08/12 10:40:29;;;;;;;4.27;1.80;;;33.90;82.80;;;;;;5023218;28;20221;-57
2022/08/12 10:45:47;;;;;;;4.20;1.90;;;34.00;82.50;;;;;;5020667;28;20299;-58
2022/08/12 10:48:19;;;;;;;3.90;1.90;;;33.90;77.70;;;;;;5028232;28;20251;-59
2022/08/12 10:51:03;;;;;;;4.00;2.27;;;33.80;79.60;;;;;;5030474;28;20226;-57
2022/08/12 10:53:54;;;;;;;3.33;1.90;;;33.80;77.60;;;;;;5032210;28;20684;-58
2022/08/12 10:56:30;;;;;;;6.37;1.97;;;33.80;75.20;;;;;;5032344;28;20220;-58
2022/08/12 10:59:03;;;;;;;8.03;2.20;;;33.60;74.40;;;;;;5027217;28;20224;-58
2022/08/12 11:01:32;;;;;;;4.23;1.80;;;33.20;77.20;;;;;;5030261;28;20236;-58
2022/08/12 11:04:20;;;;;;;6.27;1.90;;;33.20;73.60;;;;;;5025360;28;20722;-58
2022/08/12 11:07:09;;;;;;;6.43;1.90;;;33.30;74.40;;;;;;5026093;28;20216;-58
2022/08/12 11:09:58;;;;;;;9.23;1.90;;;33.60;74.80;;;;;;5028492;28;20230;-58
2022/08/12 11:12:29;;;;;;;4.53;2.23;;;34.10;75.40;;;;;;5028668;28;20729;-58
2022/08/12 11:15:22;;;;;;;4.17;1.90;;;34.40;74.80;;;;;;5031078;28;20221;-58
2022/08/12 11:18:11;;;;;;;4.93;1.80;;;34.40;74.00;;;;;;5029577;28;20224;-58
2022/08/12 11:20:46;;;;;;;2.43;1.67;;;34.20;71.00;;;;;;5024077;28;20278;-58
2022/08/12 11:23:17;;;;;;;3.43;1.70;;;34.00;71.80;;;;;;5031413;28;20220;-58
2022/08/12 11:26:04;;;;;;;3.07;1.67;;;34.10;69.20;;;;;;5026430;28;20246;-58
2022/08/12 11:28:34;;;;;;;3.60;1.70;;;34.00;69.20;;;;;;5034714;28;20587;-58
2022/08/12 11:31:06;;;;;;;4.33;1.57;;;34.20;70.10;;;;;;5026032;28;20244;-58
2022/08/12 11:33:41;;;;;;;1.73;1.50;;;34.30;68.60;;;;;;5022883;28;20221;-58
2022/08/12 11:36:29;;;;;;;3.73;1.73;;;34.00;66.70;;;;;;5026481;28;20217;-58
2022/08/12 11:38:59;;;;;;;1.73;1.60;;;33.80;66.70;;;;;;5026237;28;20240;-58
2022/08/12 11:41:32;;;;;;;3.03;1.57;;;34.00;68.00;;;;;;5034238;28;20236;-58
2022/08/12 11:44:01;;;;;;;3.70;1.87;;;33.50;66.40;;;;;;5022506;28;20707;-58
2022/08/12 11:46:50;;;;;;;3.63;1.70;;;33.50;65.30;;;;;;5035120;28;20695;-58
2022/08/12 11:49:22;;;;;;;5.53;1.80;;;33.40;65.90;;;;;;5033914;28;20282;-58
2022/08/12 11:52:03;;;;;;;1.60;1.50;;;33.30;65.70;;;;;;5035194;28;20228;-58
2022/08/12 11:54:53;;;;;;;4.37;1.70;;;33.50;67.30;;;;;;5035031;28;20221;-58
2022/08/12 11:57:21;;;;;;;3.90;1.67;;;34.00;70.90;;;;;;5034273;28;20742;-60
2022/08/12 12:00:11;;;;;;;2.43;1.50;;;34.30;68.80;;;;;;5030345;28;20221;-58
2022/08/12 12:02:59;;;;;;;3.97;1.80;;;33.80;64.60;;;;;;5025112;28;20726;-58
2022/08/12 12:05:27;;;;;;;3.30;1.80;;;33.40;68.20;;;;;;5034275;28;20299;-57
2022/08/12 12:08:08;;;;;;;3.33;1.50;;;33.10;66.30;;;;;;5034749;28;20231;-58
2022/08/12 12:10:57;;;;;;;2.83;1.90;;;33.00;69.40;;;;;;5032966;28;20227;-58
2022/08/12 12:13:26;;;;;;;4.63;1.73;;;32.60;66.00;;;;;;5031776;28;20221;-58
2022/08/12 12:16:14;;;;;;;2.03;1.63;;;32.30;67.00;;;;;;5027198;28;20239;-58
2022/08/12 12:18:44;;;;;;;3.30;1.60;;;32.40;69.30;;;;;;5034094;28;20315;-58
2022/08/12 12:21:12;;;;;;;3.00;1.50;;;32.40;69.80;;;;;;5030066;28;20228;-59
2022/08/12 12:23:40;;;;;;;4.83;1.80;;;32.20;69.30;;;;;;5034141;28;20217;-58
2022/08/12 12:26:15;;;;;;;6.73;1.60;;;32.00;67.80;;;;;;5032503;28;20307;-58
2022/08/12 12:29:04;;;;;;;3.77;1.80;;;31.90;69.10;;;;;;5032961;28;20232;-58
2022/08/12 12:31:52;;;;;;;2.77;1.70;;;31.90;66.80;;;;;;5028383;28;20220;-58
2022/08/12 12:34:38;;;;;;;3.13;1.70;;;31.70;69.10;;;;;;5033484;28;20231;-58
2022/08/12 12:37:26;;;;;;;3.87;1.70;;;31.80;69.40;;;;;;5031277;28;20220;-59
2022/08/12 12:40:14;;;;;;;4.77;1.97;;;31.80;70.00;;;;;;5024272;28;20221;-58
2022/08/12 12:42:45;;;;;;;5.27;1.90;;;31.70;68.50;;;;;;5023664;28;20214;-58
2022/08/12 12:45:32;;;;;;;4.90;2.03;;;31.60;67.70;;;;;;5023515;28;20596;-58
2022/08/12 12:48:02;;;;;;;2.90;1.80;;;31.20;66.40;;;;;;5023936;28;20647;-58
2022/08/12 12:50:32;;;;;;;3.83;1.80;;;31.20;68.10;;;;;;5027588;28;20239;-58
2022/08/12 12:53:03;;;;;;;2.13;1.90;;;31.30;68.50;;;;;;5029103;28;20320;-58
2022/08/12 12:55:34;;;;;;;2.23;1.67;;;31.50;70.60;;;;;;5026878;28;20588;-58
2022/08/12 12:58:08;;;;;;;3.73;1.73;;;31.60;70.20;;;;;;5025210;28;20235;-58
2022/08/12 13:00:39;;;;;;;4.03;1.90;;;31.50;67.80;;;;;;5030536;28;20242;-58
2022/08/12 13:03:17;;;;;;;4.03;1.80;;;31.30;65.60;;;;;;5016855;28;20331;-58
2022/08/12 13:05:46;;;;;;;2.13;1.60;;;31.50;65.60;;;;;;5016272;28;20228;-58
2022/08/12 13:08:24;;;;;;;2.70;1.60;;;31.10;63.10;;;;;;5017638;28;20309;-58
2022/08/12 13:11:04;;;;;;;5.13;1.83;;;31.00;65.00;;;;;;5015177;28;20289;-58
2022/08/12 13:13:35;;;;;;;4.07;1.60;;;30.80;66.10;;;;;;5013646;28;20238;-58
2022/08/12 13:16:29;;;;;;;3.93;1.73;;;30.70;66.60;;;;;;5016640;28;20240;-59
2022/08/12 13:18:57;;;;;;;3.90;1.80;;;30.70;67.80;;;;;;5015835;28;20227;-58
2022/08/12 13:21:28;;;;;;;3.00;1.70;;;30.80;66.30;;;;;;5012479;28;20568;-58
2022/08/12 13:24:04;;;;;;;3.10;1.93;;;30.90;66.40;;;;;;5017400;28;20242;-58
2022/08/12 13:26:38;;;;;;;5.73;2.03;;;30.80;65.80;;;;;;5016881;28;20585;-59
2022/08/12 13:29:08;;;;;;;3.73;2.03;;;31.00;68.30;;;;;;5017645;28;20254;-59
2022/08/12 13:31:40;;;;;;;4.63;2.00;;;31.00;68.20;;;;;;5013101;28;20233;-58
2022/08/12 13:34:28;;;;;;;2.10;1.90;;;31.10;67.90;;;;;;5017175;28;20244;-59
2022/08/12 13:37:03;;;;;;;4.53;2.00;;;31.10;67.90;;;;;;5016927;28;20961;-58
2022/08/12 13:39:36;;;;;;;2.37;1.70;;;30.70;67.40;;;;;;5015622;28;20232;-57
2022/08/12 13:42:07;;;;;;;2.90;1.93;;;30.70;69.70;;;;;;5012958;28;20246;-58
2022/08/12 13:44:43;;;;;;;3.80;1.87;;;30.70;68.70;;;;;;5017417;28;20287;-57
2022/08/12 13:47:13;;;;;;;4.80;1.83;;;30.80;69.00;;;;;;5016422;28;20284;-59
2022/08/12 13:49:48;;;;;;;4.90;2.10;;;30.80;68.70;;;;;;5015237;28;20641;-58
2022/08/12 13:52:22;;;;;;;3.73;1.90;;;30.80;68.80;;;;;;5013731;28;20220;-58
2022/08/12 13:54:50;;;;;;;3.23;1.90;;;30.50;68.40;;;;;;5016206;28;20245;-58
2022/08/12 13:57:25;;;;;;;3.53;1.90;;;30.60;69.90;;;;;;5016725;28;20874;-58
2022/08/12 13:59:55;;;;;;;2.23;1.83;;;30.50;70.00;;;;;;5015360;28;20240;-58
2022/08/12 14:02:27;;;;;;;6.20;2.00;;;30.50;71.00;;;;;;5011929;28;20235;-58
2022/08/12 14:04:55;;;;;;;4.37;2.10;;;30.40;71.30;;;;;;5016281;28;20302;-58
2022/08/12 14:07:24;;;;;;;3.77;1.90;;;30.50;71.80;;;;;;5015600;28;20235;-57
2022/08/12 14:12:45;;;;;;;4.50;2.10;;;30.50;70.80;;;;;;5011458;28;20282;-58
2022/08/12 14:15:24;;;;;;;3.97;2.10;;;30.30;70.20;;;;;;5014271;28;20329;-59
2022/08/12 14:18:22;;;;;;;5.67;2.40;;;30.20;71.00;;;;;;5023465;28;20232;-57
2022/08/12 14:20:56;;;;;;;3.17;1.70;;;30.10;71.50;;;;;;5017784;28;20235;-58
2022/08/12 14:23:27;;;;;;;2.80;2.03;;;30.10;70.40;;;;;;5018244;28;20271;-57
2022/08/12 14:26:19;;;;;;;3.70;2.20;;;30.00;70.60;;;;;;5018156;28;20220;-58
2022/08/12 14:28:49;;;;;;;5.37;2.30;;;30.00;70.60;;;;;;5018950;28;20231;-58
2022/08/12 14:31:31;;;;;;;4.37;2.00;;;30.00;71.70;;;;;;5017256;28;20228;-58
2022/08/12 14:34:02;;;;;;;3.00;2.10;;;30.10;70.60;;;;;;5022401;28;20225;-57
2022/08/12 14:36:32;;;;;;;5.30;2.20;;;29.90;70.60;;;;;;5032071;28;20275;-57
2022/08/12 14:39:04;;;;;;;4.20;2.03;;;29.90;70.00;;;;;;5032446;28;20225;-57
2022/08/12 14:41:33;;;;;;;6.80;1.90;;;29.80;71.30;;;;;;5031458;28;20268;-57
2022/08/12 14:44:14;;;;;;;4.03;2.17;;;29.80;71.00;;;;;;5025425;28;20301;-57
2022/08/12 14:47:04;;;;;;;5.00;1.97;;;29.90;72.00;;;;;;5032057;28;20232;-57
2022/08/12 14:49:35;;;;;;;6.30;2.20;;;29.80;71.70;;;;;;5030936;28;20240;-57
2022/08/12 14:52:23;;;;;;;3.13;2.00;;;29.70;71.50;;;;;;5031594;28;20227;-57
2022/08/12 14:55:11;;;;;;;2.67;1.80;;;29.60;72.30;;;;;;5027415;28;20229;-57
2022/08/12 14:58:01;;;;;;;4.33;1.90;;;29.50;72.50;;;;;;5031873;28;20237;-57
2022/08/12 15:03:26;;;;;;;3.20;2.20;;;29.50;71.70;;;;;;5024277;28;20738;-57
2022/08/12 15:06:18;;;;;;;2.47;2.10;;;29.40;71.50;;;;;;5035743;28;20237;-57
2022/08/12 15:09:06;;;;;;;3.67;2.00;;;29.50;72.70;;;;;;5035405;28;20220;-56
2022/08/12 15:11:40;;;;;;;4.37;1.90;;;29.50;72.60;;;;;;5035169;28;20224;-57
2022/08/12 15:14:24;;;;;;;2.47;2.20;;;29.40;72.50;;;;;;5035677;28;20319;-57
2022/08/12 15:16:53;;;;;;;3.00;2.10;;;29.40;73.20;;;;;;5031968;28;20228;-57
2022/08/12 15:19:22;;;;;;;4.17;1.90;;;29.30;72.60;;;;;;5034546;28;20227;-57
2022/08/12 15:22:10;;;;;;;2.97;1.70;;;29.30;72.70;;;;;;5032185;28;20228;-56
2022/08/12 15:24:58;;;;;;;1.90;1.70;;;29.30;72.70;;;;;;5029205;28;20217;-57
2022/08/12 15:27:29;;;;;;;2.83;1.90;;;29.30;72.30;;;;;;5033820;28;20225;-56
2022/08/12 15:30:18;;;;;;;2.07;1.80;;;29.30;71.70;;;;;;5023805;28;20243;-57
2022/08/12 15:32:52;;;;;;;3.50;2.07;;;29.30;71.90;;;;;;5034971;28;20274;-56
2022/08/12 15:35:21;;;;;;;3.40;1.90;;;29.30;71.50;;;;;;5034811;28;20264;-57
2022/08/12 15:38:01;;;;;;;3.20;2.07;;;29.20;72.30;;;;;;5035144;28;20221;-58
2022/08/12 15:40:40;;;;;;;3.97;1.77;;;29.20;72.20;;;;;;5032514;28;20220;-57
2022/08/12 15:43:16;;;;;;;2.10;1.90;;;29.20;72.40;;;;;;5031174;28;20228;-56
2022/08/12 15:46:05;;;;;;;4.53;2.30;;;29.10;72.20;;;;;;5033857;28;20224;-57
2022/08/12 15:48:33;;;;;;;3.77;2.10;;;29.10;73.00;;;;;;5026530;28;20736;-58
2022/08/12 15:51:04;;;;;;;4.50;2.07;;;29.10;72.70;;;;;;5029396;28;20213;-57
2022/08/12 15:56:22;;;;;;;4.13;2.33;;;29.10;72.50;;;;;;5032948;28;20227;-57
2022/08/12 15:58:58;;;;;;;3.03;2.20;;;29.10;72.60;;;;;;5031493;28;20252;-57
2022/08/12 16:01:28;;;;;;;4.67;2.30;;;29.10;72.50;;;;;;5025805;28;20260;-58
2022/08/12 16:04:03;;;;;;;2.10;1.83;;;29.10;72.30;;;;;;5031868;28;20244;-57
2022/08/12 16:06:33;;;;;;;3.30;2.30;;;29.10;71.90;;;;;;5032816;28;20259;-58
2022/08/12 16:09:23;;;;;;;2.37;2.17;;;29.10;71.90;;;;;;5028000;28;20224;-57
2022/08/12 16:12:11;;;;;;;3.20;2.70;;;29.10;71.30;;;;;;5031312;28;20704;-57
2022/08/12 16:14:42;;;;;;;4.63;3.20;;;29.00;71.70;;;;;;5032246;28;20272;-57
2022/08/12 16:17:14;;;;;;;2.93;2.17;;;29.00;71.80;;;;;;5033992;28;20678;-57
2022/08/12 16:19:42;;;;;;;3.23;2.10;;;29.00;70.80;;;;;;5028115;28;20235;-57
2022/08/12 16:22:32;;;;;;;6.50;2.20;;;29.00;70.10;;;;;;5030333;28;20753;-57
2022/08/12 16:25:02;;;;;;;3.60;1.63;;;28.90;71.30;;;;;;5028558;28;20739;-56
2022/08/12 16:27:32;;;;;;;3.23;1.90;;;28.80;69.80;;;;;;5030286;28;20225;-57
2022/08/12 16:30:06;;;;;;;4.60;1.87;;;28.80;69.20;;;;;;5028870;28;20217;-57
2022/08/12 16:32:36;;;;;;;2.27;1.60;;;28.70;69.00;;;;;;5037133;28;20232;-57
2022/08/12 16:35:06;;;;;;;2.57;1.80;;;28.70;69.80;;;;;;5042524;28;20241;-57
2022/08/12 16:37:44;;;;;;;3.83;2.20;;;28.70;70.90;;;;;;5033593;28;20231;-57
2022/08/12 16:40:33;;;;;;;2.53;1.50;;;28.70;70.50;;;;;;5035672;28;20311;-57
2022/08/12 16:43:02;;;;;;;4.60;1.80;;;28.70;69.40;;;;;;5029170;28;20267;-57
2022/08/12 16:45:40;;;;;;;1.93;1.67;;;28.70;68.70;;;;;;5033414;28;20745;-56
2022/08/12 16:48:30;;;;;;;2.10;1.80;;;28.60;68.00;;;;;;5033547;28;20233;-55
2022/08/12 16:51:05;;;;;;;3.77;1.63;;;28.60;67.20;;;;;;5027933;28;20235;-57
2022/08/12 16:53:39;;;;;;;1.93;1.83;;;28.60;67.40;;;;;;5029401;28;20308;-57
2022/08/12 16:56:14;;;;;;;1.80;1.70;;;28.50;68.30;;;;;;5039040;28;20715;-57
2022/08/12 16:58:45;;;;;;;2.07;1.60;;;28.50;68.20;;;;;;5033218;28;20294;-56
2022/08/12 17:01:14;;;;;;;1.93;1.57;;;28.50;65.90;;;;;;5028312;28;20265;-57
2022/08/12 17:03:43;;;;;;;6.10;1.87;;;28.50;66.40;;;;;;5031229;28;20700;-56
2022/08/12 17:06:21;;;;;;;2.20;1.50;;;28.50;67.50;;;;;;5033048;28;20223;-57
2022/08/12 17:09:02;;;;;;;2.80;1.70;;;28.40;65.40;;;;;;5030487;28;20251;-57
2022/08/12 17:11:44;;;;;;;1.87;1.60;;;28.30;66.50;;;;;;5021215;28;20306;-58
2022/08/12 17:14:17;;;;;;;2.70;1.50;;;28.30;66.70;;;;;;5030920;28;20695;-57
2022/08/12 17:16:51;;;;;;;3.43;1.67;;;28.30;67.50;;;;;;5034193;28;20270;-58
2022/08/12 17:19:20;;;;;;;2.20;1.87;;;28.30;67.50;;;;;;5023152;28;20320;-57
2022/08/12 17:22:10;;;;;;;3.17;1.80;;;28.20;67.40;;;;;;5025436;28;20228;-57
2022/08/12 17:24:44;;;;;;;3.10;1.80;;;28.20;68.20;;;;;;5032217;28;20224;-57
2022/08/12 17:27:21;;;;;;;6.27;3.00;;;28.20;69.40;;;;;;5027184;28;20569;-57
2022/08/12 17:29:51;;;;;;;3.33;2.20;;;28.20;69.30;;;;;;5023881;28;20232;-56
2022/08/12 17:32:32;;;;;;;5.47;3.07;;;28.10;69.50;;;;;;5017753;28;20224;-56
2022/08/12 17:37:49;;;;;;;3.37;2.20;;;28.10;70.10;;;;;;5031208;28;20315;-56
2022/08/12 17:40:26;;;;;;;2.90;2.27;;;28.00;70.80;;;;;;5031389;28;20228;-57
2022/08/12 17:43:08;;;;;;;4.03;1.90;;;28.00;71.50;;;;;;5032759;28;20232;-57
2022/08/12 17:45:56;;;;;;;5.17;1.93;;;28.00;72.70;;;;;;5013973;28;20227;-56
2022/08/12 17:48:31;;;;;;;2.27;2.03;;;27.90;72.70;;;;;;5029718;28;20626;-56
2022/08/12 17:51:11;;;;;;;4.40;1.90;;;27.90;73.40;;;;;;5031366;28;20281;-57
2022/08/12 17:53:44;;;;;;;2.53;1.90;;;27.80;73.20;;;;;;5029105;28;20741;-56
2022/08/12 17:56:36;;;;;;;5.80;2.40;;;27.80;73.00;;;;;;5031782;28;20691;-56
2022/08/12 17:59:08;;;;;;;4.50;2.03;;;27.70;73.10;;;;;;5030955;28;20229;-57
2022/08/12 18:01:42;;;;;;;6.27;2.13;;;27.70;74.00;;;;;;5029053;28;20241;-56
2022/08/12 18:04:14;;;;;;;9.20;2.37;;;27.70;73.80;;;;;;5028927;28;20236;-56
2022/08/12 18:06:51;;;;;;;8.00;2.20;;;27.60;74.00;;;;;;5032472;28;20223;-56
2022/08/12 18:09:21;;;;;;;6.07;2.30;;;27.60;74.40;;;;;;5028894;28;20220;-57
2022/08/12 18:14:41;;;;;;;4.63;2.13;;;27.50;74.60;;;;;;5032074;28;20242;-56
2022/08/12 18:17:16;;;;;;;4.10;2.10;;;27.40;75.70;;;;;;5028394;28;20235;-56
2022/08/12 18:19:44;;;;;;;4.33;2.10;;;27.40;75.50;;;;;;5027148;28;20694;-58
2022/08/12 18:22:33;;;;;;;5.00;2.07;;;27.30;76.80;;;;;;5022552;28;20228;-56
2022/08/12 18:25:05;;;;;;;3.63;1.90;;;27.30;76.10;;;;;;5027351;28;20226;-56
2022/08/12 18:27:42;;;;;;;6.37;2.20;;;27.10;76.20;;;;;;5031776;28;20220;-57
2022/08/12 18:30:15;;;;;;;2.70;1.80;;;27.10;77.60;;;;;;5022174;28;20254;-56
2022/08/12 18:32:58;;;;;;;5.20;2.40;;;27.00;78.50;;;;;;5024619;28;20274;-56
2022/08/12 18:35:33;;;;;;;3.53;2.17;;;26.90;79.30;;;;;;5031835;28;22514;-56
2022/08/12 18:38:19;;;;;;;4.17;2.17;;;26.80;80.70;;;;;;5040719;28;20224;-56
2022/08/12 18:43:39;;;;;;;3.53;2.10;;;26.70;84.00;;;;;;5032074;28;20573;-56
2022/08/12 18:46:33;;;;;;;4.30;2.10;;;26.60;84.70;;;;;;5034822;28;20224;-56
2022/08/12 18:49:06;;;;;;;3.43;2.17;;;26.50;85.80;;;;;;5035330;28;20235;-56
2022/08/12 18:51:51;;;;;;;3.17;2.00;;;26.40;86.90;;;;;;5034595;28;20238;-57
2022/08/12 18:54:31;;;;;;;4.23;2.40;;;26.30;89.70;;;;;;5035316;28;20269;-56
2022/08/12 18:57:03;;;;;;;3.63;2.07;;;26.30;88.80;;;;;;5017627;28;20339;-56
2022/08/12 18:59:36;;;;;;;6.07;2.30;;;26.10;89.90;;;;;;5034301;28;20266;-56
2022/08/12 19:02:25;;;;;;;2.63;2.10;;;26.10;90.40;;;;;;5039300;28;20236;-56
2022/08/12 19:04:56;;;;;;;3.53;2.07;;;26.10;90.20;;;;;;5034762;28;20704;-57
2022/08/12 19:07:26;;;;;;;5.97;2.10;;;26.00;90.90;;;;;;5035368;28;20255;-56
2022/08/12 19:10:17;;;;;;;3.60;2.13;;;25.90;91.00;;;;;;5028525;28;20228;-56
2022/08/12 19:15:47;;;;;;;5.83;2.40;;;25.80;91.30;;;;;;5035136;28;20235;-56
2022/08/12 19:18:15;;;;;;;4.20;2.67;;;25.80;91.60;;;;;;5038090;28;20637;-56
2022/08/12 19:20:44;;;;;;;7.03;2.20;;;25.70;91.80;;;;;;5035131;28;20223;-56
2022/08/12 19:23:15;;;;;;;4.77;2.30;;;25.70;92.10;;;;;;5032763;28;20307;-56
2022/08/12 19:25:51;;;;;;;3.20;2.20;;;25.60;92.30;;;;;;5035849;28;20231;-56
2022/08/12 19:28:32;;;;;;;3.67;2.20;;;25.60;92.40;;;;;;5035322;28;20560;-56
2022/08/12 19:31:43;;;;;;;6.23;2.07;;;25.50;92.70;;;;;;5031494;28;20691;-56
2022/08/12 19:34:29;;;;;;;4.13;1.90;;;25.40;92.60;;;;;;5035360;28;20338;-55
2022/08/12 19:37:21;;;;;;;2.80;1.80;;;25.40;93.10;;;;;;5033858;28;20234;-57
2022/08/12 19:40:07;;;;;;;4.70;2.20;;;25.30;93.30;;;;;;5033438;28;20248;-56
2022/08/12 19:42:56;;;;;;;3.90;2.53;;;25.20;93.70;;;;;;5033811;28;20231;-56
2022/08/12 19:45:33;;;;;;;4.67;1.90;;;25.20;94.40;;;;;;5041472;28;20274;-56
2022/08/12 19:48:15;;;;;;;5.80;2.43;;;25.10;93.90;;;;;;5041871;28;20262;-56
2022/08/12 19:50:45;;;;;;;3.10;2.37;;;25.00;94.20;;;;;;5042334;28;20326;-57
2022/08/12 19:53:20;;;;;;;3.60;2.50;;;25.00;94.50;;;;;;5038243;28;20232;-57
2022/08/12 19:55:52;;;;;;;7.30;4.33;;;25.00;94.40;;;;;;5039452;28;20714;-56
2022/08/12 19:58:22;;;;;;;5.13;3.00;;;24.90;94.80;;;;;;5044155;28;20755;-56
2022/08/12 20:00:52;;;;;;;6.70;2.90;;;24.90;94.90;;;;;;5041448;28;20250;-56
2022/08/12 20:03:25;;;;;;;3.40;3.03;;;24.80;95.40;;;;;;5035188;28;20232;-56
2022/08/12 20:06:11;;;;;;;4.50;2.87;;;24.80;95.10;;;;;;5034951;28;20269;-56
2022/08/12 20:08:46;;;;;;;4.00;2.67;;;24.80;95.30;;;;;;5035222;28;20651;-56
2022/08/12 20:11:21;;;;;;;3.73;2.40;;;24.70;95.70;;;;;;5035777;28;20695;-56
2022/08/12 20:14:09;;;;;;;2.77;2.30;;;24.60;95.90;;;;;;5046676;28;20231;-56
2022/08/12 20:16:37;;;;;;;3.50;2.60;;;24.60;96.00;;;;;;5044600;28;20769;-56
2022/08/12 20:19:24;;;;;;;6.13;2.17;;;24.50;96.20;;;;;;5027332;28;20226;-56
2022/08/12 20:22:15;;;;;;;6.07;2.40;;;24.50;96.40;;;;;;5018697;28;20717;-56